Flight Track Log - Related Links

Times and Time Zones

All times are in EDT time to prevent confusion due to time zone crossing. See the N75ZM flight status page for this flight to view local times or setup timezone preferences in your user account.

Time Position Orientation Groundspeed Altitude Reporting Facility
EDT Latitude Longitude Course Direction KTS MPH feet Rate Location/Type
Fri 12:43:21 PM 41.5275 -81.6675 359° North 104 120 1,300  Level Cleveland Center
Fri 12:44:10 PM 41.5525 -81.6681 359° North 124 143 2,100 991 Climbing Cleveland Center
Fri 12:45:10 PM 41.5858 -81.6853 339° North 130 150 3,100 1,041 Climbing Cleveland Center
Fri 12:46:11 PM 41.6061 -81.7161 311° West 127 146 4,200 1,096 Climbing Cleveland Center
Fri 12:47:05 PM 41.6164 -81.7553 289° West 118 136 5,200 991 Climbing Cleveland Center
Fri 12:48:06 PM 41.6261 -81.7969 287° West 121 139 6,100 466 Climbing Cleveland Center
Fri 12:49:01 PM 41.6383 -81.8417 290° West 155 178 6,100  Level Cleveland Center
Fri 12:50:01 PM 41.6522 -81.8975 288° West 163 188 6,100  Level Cleveland Center
Fri 12:51:08 PM 41.6683 -81.9592 289° West 157 181 6,100  Level Cleveland Center
Fri 12:52:08 PM 41.6819 -82.0178 287° West 160 184 6,100  Level Cleveland Center
Fri 12:53:03 PM 41.6961 -82.0625 293° West 159 183 6,100  Level Cleveland Center
Fri 12:54:10 PM 41.7139 -82.1269 290° West 158 182 6,100  Level Cleveland Center
Fri 12:55:11 PM 41.7258 -82.1828 286° West 158 182 6,100  Level Cleveland Center
Fri 12:56:23 PM 41.7456 -82.2558 290° West 160 184 6,100  Level Cleveland Center
Fri 12:57:30 PM 41.7614 -82.3147 290° West 159 183 6,100  Level Cleveland Center
Fri 12:58:04 PM 41.7692 -82.3456 289° West 160 184 6,100  Level Cleveland Center
Fri 12:59:05 PM 41.7850 -82.4017 291° West 159 183 6,100  Level Cleveland Center
Fri 01:00:06 PM 41.8008 -82.4578 291° West 158 182 6,100  Level Cleveland Center
Fri 01:01:07 PM 41.8144 -82.5194 287° West 158 182 6,100  Level Cleveland Center
Fri 01:02:08 PM 41.8300 -82.5756 290° West 156 180 6,100  Level Cleveland Center
Fri 01:03:09 PM 41.8458 -82.6264 293° West 158 182 6,100 -94 Level Cleveland Center
Fri 01:04:16 PM 41.8719 -82.6800 303° West 165 190 5,900 -328 Descending Cleveland Center
Fri 01:05:17 PM 41.8853 -82.7419 286° West 170 196 5,400 -393 Descending Cleveland Center
Fri 01:06:18 PM 41.8967 -82.8036 284° West 175 201 5,100 -148 Descending Cleveland Center
Fri 01:07:19 PM 41.9081 -82.8628 285° West 164 189 5,100  Level Cleveland Center
Fri 01:08:20 PM 41.9214 -82.9244 286° West 161 185 5,100  Level Cleveland Center
Fri 01:09:21 PM 41.9328 -82.9836 285° West 161 185 5,100  Level Cleveland Center
Fri 01:10:28 PM 41.9461 -83.0456 286° West 163 188 5,100 -234 Level Cleveland Center
Fri 01:11:29 PM 41.9486 -83.1156 273° West 175 201 4,600 -492 Descending Cleveland Center
Fri 01:12:30 PM 41.9492 -83.1825 271° West 176 203 4,100 -517 Descending Cleveland Center
Fri 01:13:25 PM 41.9519 -83.2411 274° West 177 204 3,600 -517 Descending Cleveland Center
Fri 01:14:26 PM 41.9547 -83.3056 273° West 167 192 3,100 -188 Descending Cleveland Center
Fri 01:15:33 PM 41.9553 -83.3669 271° West 154 177 3,200  Climbing Cleveland Center
Fri 01:16:28 PM 41.9583 -83.4203 274° West 140 161 3,100 -52 Descending Cleveland Center
Fri 01:17:29 PM 41.9633 -83.4681 278° West 137 158 3,100 49 Level Cleveland Center
Fri 01:18:30 PM 41.9789 -83.5133 295° West 132 152 3,200  Climbing Cleveland Center
Fri 01:19:30 PM 42.0072 -83.5453 320° Northwest 135 155 3,100 -52 Descending Cleveland Center
Fri 01:20:25 PM 42.0333 -83.5772 318° Northwest 142 163 3,100  Level Cleveland Center
Fri 01:21:44 PM 42.0764 -83.6131 328° Northwest 144 166 3,100  Level Cleveland Center
Fri 01:22:27 PM 42.1011 -83.6169 353° North 137 158 3,100 -148 Level Cleveland Center
Fri 01:23:46 PM 42.1553 -83.6167 360° North 170 196 2,800 -537 Descending Cleveland Center
Fri 01:24:41 PM 42.1933 -83.5989 19° North 166 191 1,900 -808 Descending Cleveland Center
Fri 01:25:30 PM 42.2128 -83.5717 46° Northeast 97 112 1,400 -612 Descending Cleveland Center
Fri 01:27:00 PM 42.2393 -83.5310 84° East  Level Estimated
Fri 01:34:00 PM 42.2393 -83.5310 90° East  Level Estimated
Fri 01:35:00 PM 42.2393 -83.5310 90° East  Level Estimated
Fri 01:36:00 PM 42.2393 -83.5310 90° East  Level Estimated

Login

Don't have an account? Register now (free) for customized features, flight alerts, and more!